首页
METAR-TAF:

METAR-TAF

机场 :

Ontario Municipal Airport

安大略, 俄勒冈州, 美国

纬度: 44-01-10N, 经度: 117-00-35W, 海拔: 667米

当前天气观测

该预报发布于25分钟前的20:53 UTC
温度 22°C
湿度 29%
气压 1018 hPa
能見度: 16.1公里
天空无云

METAR: KONO 262053Z AUTO 10SM CLR 22/03 A3007 RMK AO2 SLP179 T02170028 58007 $

时间: 15:18 (21:18 UTC)

预报

该预报发布于3小时和46分钟前的17:32 UTC
预报有效从26日的 18点(UTC)到 27日的 18点(UTC)
风速8节,风向西转西南
能見度: 10公里
少量云层高于20000英尺
从 26日的 2000点(UTC)
风速5节,风向多变
能見度: 10公里
少量云层高于20000英尺

TAF: KONO 261732Z 2618/2718 24008KT P6SM FEW200 FM262000 VRB05KT P6SM FEW200

超过4000个机场的气象观测和天气预报(METAR&TAF报告)。

可查询的气象台以黄色和红色小点在地图上表示。

将鼠标移到小点上方,可查看气象台名称。

然后点击查看天气观测和预报。

如需切换地图:点击带黑十字的绿色按钮放大地图;点击带横线的绿色按钮缩小地图;或者点击绿色箭头查看邻近地区的地图。


METAR-TAF: